Time;durP1;ratioP1;P1;durP2;ratioP2;P2;SDS_P1;SDS_P2;PMS_P1;PMS_P2;Temp;Humidity;BMP_temperature;BMP_pressure;BME280_temperature;BME280_humidity;BME280_pressure;Samples;Min_cycle;Max_cycle;Signal;HPM_P1;HPM_P2
2021/12/03 00:00:35;;;;;;;0.10;0.10;;;;;;;1.79;87.83;101199.25;4992767;28;101323;-35
2021/12/03 00:03:01;;;;;;;0.40;0.40;;;;;;;1.78;87.45;101194.81;4995251;28;97633;-34
2021/12/03 00:05:27;;;;;;;1.65;0.82;;;;;;;1.70;87.56;101190.50;4993950;28;96604;-35
2021/12/03 00:07:52;;;;;;;0.50;0.50;;;;;;;1.69;88.04;101190.53;4995007;28;96675;-35
2021/12/03 00:10:22;;;;;;;3.33;0.45;;;;;;;1.70;87.73;101190.50;4994030;28;99263;-35
2021/12/03 00:12:48;;;;;;;0.05;0.03;;;;;;;1.73;87.94;101212.72;4994636;28;97789;-35
2021/12/03 00:15:14;;;;;;;2.72;1.00;;;;;;;1.74;87.89;101212.72;4995060;28;96472;-34
2021/12/03 00:17:39;;;;;;;0.50;0.05;;;;;;;1.71;87.82;101194.06;4993492;28;96847;-35
2021/12/03 00:20:09;;;;;;;1.13;0.45;;;;;;;1.72;87.93;101208.28;4993993;28;116762;-35
2021/12/03 00:22:34;;;;;;;1.55;0.77;;;;;;;1.72;87.60;101214.53;4976635;28;101081;-35
2021/12/03 00:24:59;;;;;;;0.20;0.20;;;;;;;1.66;88.33;101203.94;4994618;28;99023;-35
2021/12/03 00:27:25;;;;;;;5.18;0.22;;;;;;;1.72;87.58;101208.28;4993194;28;96891;-35
2021/12/03 00:29:50;;;;;;;0.13;0.13;;;;;;;1.71;87.93;101196.72;4993930;28;118287;-34
2021/12/03 00:32:15;;;;;;;0.15;0.03;;;;;;;1.75;87.99;101202.91;4994441;28;97802;-34
2021/12/03 00:34:41;;;;;;;0.32;0.32;;;;;;;1.79;88.11;101201.91;4994355;28;96638;-35
2021/12/03 00:37:06;;;;;;;0.57;0.32;;;;;;;1.72;88.21;101193.16;4994505;28;96691;-34
2021/12/03 00:39:31;;;;;;;0.00;0.00;;;;;;;1.74;87.89;101198.44;4992918;28;101167;-35
2021/12/03 00:42:00;;;;;;;0.22;0.13;;;;;;;1.70;87.89;101198.53;4994391;28;101967;-34
2021/12/03 00:44:26;;;;;;;1.00;0.38;;;;;;;1.75;87.79;101217.13;4994373;28;96563;-35
2021/12/03 00:46:52;;;;;;;0.88;0.47;;;;;;;1.76;87.87;101210.00;4993209;28;96772;-35
2021/12/03 00:49:18;;;;;;;0.00;0.00;;;;;;;1.71;87.63;101212.75;4992890;28;100731;-35
2021/12/03 00:51:43;;;;;;;0.08;0.05;;;;;;;1.72;87.92;101208.28;4994732;28;97376;-35
2021/12/03 00:54:09;;;;;;;0.20;0.20;;;;;;;1.70;88.13;101205.66;4994770;28;96500;-35
2021/12/03 00:56:34;;;;;;;0.20;0.20;;;;;;;1.77;88.09;101220.66;4994402;28;96752;-34
2021/12/03 00:58:59;;;;;;;0.80;0.30;;;;;;;1.78;87.76;101208.19;4993326;28;111078;-34
2021/12/03 01:01:25;;;;;;;11.18;0.30;;;;;;;1.78;88.10;101205.50;4993623;28;97553;-35
2021/12/03 01:03:51;;;;;;;0.70;0.22;;;;;;;1.78;88.17;101209.03;4994734;28;96515;-35
2021/12/03 01:06:16;;;;;;;0.00;0.00;;;;;;;1.79;87.93;101209.91;4997438;28;96653;-35
2021/12/03 01:08:41;;;;;;;0.00;0.00;;;;;;;1.72;87.80;101193.16;4997973;28;97336;-35
2021/12/03 01:11:10;;;;;;;0.10;0.10;;;;;;;1.74;87.87;101198.44;4996817;28;116842;-35
2021/12/03 01:13:37;;;;;;;0.00;0.00;;;;;;;1.77;88.08;101198.41;4997548;28;96446;-35
2021/12/03 01:16:05;;;;;;;0.00;0.00;;;;;;;1.73;87.56;101189.56;4996593;28;96755;-35
2021/12/03 01:18:31;;;;;;;0.20;0.20;;;;;;;1.75;88.18;101193.09;4995950;28;102177;-35
2021/12/03 01:20:56;;;;;;;0.40;0.40;;;;;;;1.72;87.92;101184.25;4995885;28;100726;-35
2021/12/03 01:23:22;;;;;;;0.35;0.22;;;;;;;1.78;88.46;101200.16;4997201;28;96606;-34
2021/12/03 01:25:47;;;;;;;0.50;0.05;;;;;;;1.80;88.25;101201.03;4997530;28;96756;-35
2021/12/03 01:28:13;;;;;;;0.20;0.10;;;;;;;1.78;87.61;101192.16;4997076;28;97859;-35
2021/12/03 01:30:39;;;;;;;0.10;0.10;;;;;;;1.77;88.08;101190.41;4997019;28;99848;-35
2021/12/03 01:33:07;;;;;;;0.00;0.00;;;;;;;1.80;88.31;101201.03;4996143;28;96508;-35
2021/12/03 01:35:34;;;;;;;0.13;0.13;;;;;;;1.82;87.89;101204.53;4997503;28;96762;-35
2021/12/03 01:38:00;;;;;;;0.63;0.32;;;;;;;1.82;88.22;101210.75;4995593;28;100817;-35
2021/12/03 01:40:28;;;;;;;0.22;0.03;;;;;;;1.85;88.35;101209.81;4997441;28;97798;-35
2021/12/03 01:42:54;;;;;;;0.05;0.00;;;;;;;1.82;88.26;101200.06;4995883;28;96650;-35
2021/12/03 01:45:27;;;;;;;0.57;0.47;;;;;;;1.81;87.96;101194.75;4996006;28;96766;-35
2021/12/03 01:47:52;;;;;;;0.82;0.10;;;;;;;1.82;87.71;101208.09;4994966;28;101172;-35
2021/12/03 01:50:23;;;;;;;0.10;0.10;;;;;;;1.88;88.25;101212.41;4996892;28;98286;-35
2021/12/03 01:52:49;;;;;;;0.20;0.17;;;;;;;1.87;88.06;101200.84;4996939;28;96548;-35
2021/12/03 01:55:14;;;;;;;2.08;0.57;;;;;;;1.87;88.07;101200.84;4997144;28;96724;-35
2021/12/03 01:57:40;;;;;;;6.03;0.47;;;;;;;1.87;88.10;101191.97;4996579;28;99145;-35
2021/12/03 02:00:10;;;;;;;1.00;0.22;;;;;;;1.88;88.26;101201.72;4996524;28;97231;-34
2021/12/03 02:02:36;;;;;;;0.22;0.10;;;;;;;1.85;88.40;101177.78;4997177;28;96446;-34
2021/12/03 02:05:01;;;;;;;0.00;0.00;;;;;;;1.85;88.11;101175.97;4997409;28;96716;-35
2021/12/03 02:07:26;;;;;;;0.00;0.00;;;;;;;1.86;88.19;101174.16;4996369;28;99231;-35
2021/12/03 02:09:52;;;;;;;1.02;0.50;;;;;;;1.86;88.13;101163.50;4995790;28;114854;-35
2021/12/03 02:12:17;;;;;;;0.70;0.22;;;;;;;1.91;88.56;101169.66;4995363;28;116838;-35
2021/12/03 02:14:42;;;;;;;0.00;0.00;;;;;;;1.83;88.56;101148.41;4996983;28;96719;-35
2021/12/03 02:17:08;;;;;;;0.00;0.00;;;;;;;1.90;88.33;101158.06;4995556;28;99570;-35
2021/12/03 02:19:34;;;;;;;1.30;0.30;;;;;;;1.90;88.44;101166.06;4996429;28;102544;-35
2021/12/03 02:21:59;;;;;;;0.05;0.05;;;;;;;1.94;88.32;101182.06;4996532;28;96625;-35
2021/12/03 02:24:25;;;;;;;0.40;0.15;;;;;;;1.91;88.26;101177.66;4996844;28;96751;-34
2021/12/03 02:26:50;;;;;;;0.40;0.25;;;;;;;1.87;87.94;101181.28;4996205;28;97785;-35
2021/12/03 02:29:16;;;;;;;2.38;0.25;;;;;;;1.86;88.23;101180.41;4995865;28;121800;-35
2021/12/03 02:31:42;;;;;;;0.10;0.10;;;;;;;1.85;88.57;101173.28;4995235;28;96580;-35
2021/12/03 02:34:07;;;;;;;0.00;0.00;;;;;;;1.87;88.39;101175.94;4996715;28;96709;-35
2021/12/03 02:36:33;;;;;;;0.00;0.00;;;;;;;1.90;88.51;101183.88;4994193;28;99031;-34
2021/12/03 02:38:58;;;;;;;0.00;0.00;;;;;;;1.91;88.11;101186.53;4996050;28;97823;-35
2021/12/03 02:41:24;;;;;;;0.32;0.25;;;;;;;1.88;87.98;101185.72;4996131;28;97826;-35
2021/12/03 02:43:49;;;;;;;0.00;0.00;;;;;;;1.89;88.24;101175.00;4996612;28;96802;-34
2021/12/03 02:46:15;;;;;;;0.00;0.00;;;;;;;1.83;88.09;101163.56;4996097;28;98408;-34
2021/12/03 02:48:41;;;;;;;0.45;0.38;;;;;;;1.89;88.48;101174.13;4996074;28;97336;-35
2021/12/03 02:51:08;;;;;;;0.00;0.00;;;;;;;1.82;88.47;101152.00;4994855;28;96568;-34
2021/12/03 02:53:34;;;;;;;0.00;0.00;;;;;;;1.91;88.52;101170.50;4995000;28;96787;-35
2021/12/03 02:56:00;;;;;;;0.05;0.05;;;;;;;1.87;88.20;101162.59;4994462;28;100854;-35
2021/12/03 02:58:25;;;;;;;0.00;0.00;;;;;;;1.91;88.12;101173.19;4994325;28;100495;-34
2021/12/03 03:00:51;;;;;;;0.30;0.25;;;;;;;1.90;88.38;101174.06;4995034;28;97227;-34
2021/12/03 03:03:17;;;;;;;0.03;0.03;;;;;;;1.89;88.22;101171.47;4996177;28;96728;-34
2021/12/03 03:05:52;;;;;;;0.95;0.50;;;;;;;1.84;88.13;101165.34;4995666;28;97992;-35
2021/12/03 03:08:17;;;;;;;2.35;0.57;;;;;;;1.82;88.22;101157.34;4994329;28;101045;-35
2021/12/03 03:10:42;;;;;;;0.15;0.15;;;;;;;1.87;88.27;101160.78;4995486;28;101756;-35
2021/12/03 03:13:08;;;;;;;1.75;0.68;;;;;;;1.87;88.20;101154.59;4993674;28;115605;-34
2021/12/03 03:15:33;;;;;;;0.00;0.00;;;;;;;1.89;87.91;101163.44;4995561;28;97427;-35
2021/12/03 03:18:27;;;;;;;0.13;0.10;;;;;;;1.91;88.48;101161.63;4995172;28;122598;-35
2021/12/03 03:20:55;;;;;;;0.20;0.00;;;;;;;1.88;88.24;101151.00;4995503;28;96685;-34
2021/12/03 03:23:21;;;;;;;0.00;0.00;;;;;;;1.83;88.24;101142.19;4994409;28;96966;-34
2021/12/03 03:25:47;;;;;;;0.03;0.03;;;;;;;1.87;88.40;101151.91;4993342;28;100817;-35
2021/12/03 03:28:14;;;;;;;0.00;0.00;;;;;;;1.93;88.38;101162.44;4993457;28;100904;-34
2021/12/03 03:30:41;;;;;;;0.77;0.43;;;;;;;1.96;88.12;101149.06;4994338;28;96558;-34
2021/12/03 03:33:08;;;;;;;0.00;0.00;;;;;;;1.92;88.48;101150.88;4995723;28;96727;-35
2021/12/03 03:35:33;;;;;;;1.40;0.28;;;;;;;1.91;88.10;101130.44;4993790;28;100495;-35
2021/12/03 03:38:00;;;;;;;0.32;0.13;;;;;;;1.92;88.02;101137.53;4993782;28;101061;-35
2021/12/03 03:40:26;;;;;;;0.00;0.00;;;;;;;1.94;88.43;101133.97;4994180;28;96481;-35
2021/12/03 03:42:51;;;;;;;0.10;0.08;;;;;;;2.01;88.72;101136.47;4994307;28;96981;-35
2021/12/03 03:45:22;;;;;;;0.00;0.00;;;;;;;1.99;88.93;101116.91;4995086;28;97863;-34
2021/12/03 03:47:48;;;;;;;0.20;0.20;;;;;;;2.02;88.07;101116.84;4993609;28;100724;-35
2021/12/03 03:50:16;;;;;;;0.50;0.40;;;;;;;2.05;88.36;101099.88;4994956;28;96435;-34
2021/12/03 03:52:42;;;;;;;0.50;0.47;;;;;;;2.15;88.25;101120.16;4993782;28;96785;-35
2021/12/03 03:55:09;;;;;;;0.20;0.20;;;;;;;2.17;88.19;101115.66;4992991;28;104374;-34
2021/12/03 03:57:35;;;;;;;0.00;0.00;;;;;;;2.18;88.50;101128.06;4993559;28;100951;-35
2021/12/03 04:00:02;;;;;;;0.20;0.10;;;;;;;2.23;88.12;101127.97;4995070;28;96540;-34
2021/12/03 04:02:28;;;;;;;0.10;0.10;;;;;;;2.26;88.88;101120.75;4993401;28;96775;-35
2021/12/03 04:04:53;;;;;;;0.00;0.00;;;;;;;2.29;88.80;101106.47;4995021;28;98453;-34
2021/12/03 04:07:18;;;;;;;0.05;0.05;;;;;;;2.32;88.59;101098.38;4994451;28;118180;-35
2021/12/03 04:09:44;;;;;;;0.30;0.30;;;;;;;2.31;88.44;101097.50;4994926;28;96625;-35
2021/12/03 04:12:09;;;;;;;2.20;0.55;;;;;;;2.37;88.51;101098.25;4995081;28;96868;-34
2021/12/03 04:14:35;;;;;;;0.35;0.25;;;;;;;2.37;88.55;101085.78;4994029;28;98061;-35
2021/12/03 04:17:00;;;;;;;0.03;0.00;;;;;;;2.41;88.47;101091.91;4993332;28;100676;-35
2021/12/03 04:19:26;;;;;;;0.13;0.13;;;;;;;2.42;88.70;101099.03;4994934;28;96449;-34
2021/12/03 04:21:51;;;;;;;0.50;0.28;;;;;;;2.46;88.62;101104.28;4994948;28;96915;-34
2021/12/03 04:24:16;;;;;;;0.57;0.57;;;;;;;2.48;88.29;101105.13;4994699;28;97961;-35
2021/12/03 04:26:42;;;;;;;1.48;0.32;;;;;;;2.50;88.24;101116.66;4994105;28;97450;-35
2021/12/03 04:29:07;;;;;;;0.32;0.30;;;;;;;2.50;88.09;101107.72;4993745;28;115636;-35
2021/12/03 04:31:33;;;;;;;3.35;0.40;;;;;;;2.54;88.66;101098.72;4993743;28;97071;-35
2021/12/03 04:33:58;;;;;;;7.32;1.02;;;;;;;2.51;88.57;101093.47;4994426;28;97412;-35
2021/12/03 04:36:23;;;;;;;0.47;0.28;;;;;;;2.57;89.17;101095.97;4994641;28;101664;-35
2021/12/03 04:38:48;;;;;;;1.05;0.30;;;;;;;2.61;88.71;101095.00;4994377;28;96499;-35
2021/12/03 04:41:14;;;;;;;1.23;1.10;;;;;;;2.60;88.13;101092.34;4997630;28;96944;-35
2021/12/03 04:43:40;;;;;;;0.55;0.47;;;;;;;2.62;88.64;101091.41;4996286;28;99656;-35
2021/12/03 04:46:05;;;;;;;0.95;0.85;;;;;;;2.65;88.52;101085.97;4997712;28;99149;-35
2021/12/03 04:48:30;;;;;;;0.68;0.60;;;;;;;2.61;88.62;101070.94;4998289;28;96569;-35
2021/12/03 04:50:56;;;;;;;0.73;0.63;;;;;;;2.68;88.49;101077.88;4998319;28;96746;-35
2021/12/03 04:53:21;;;;;;;1.27;0.73;;;;;;;2.64;88.63;101072.63;4997328;28;105520;-35
2021/12/03 04:55:48;;;;;;;5.05;0.77;;;;;;;2.67;88.71;101080.56;4998058;28;99254;-34
2021/12/03 04:58:13;;;;;;;0.90;0.82;;;;;;;2.61;89.49;101076.28;4996277;28;96531;-34
2021/12/03 05:00:49;;;;;;;0.70;0.68;;;;;;;2.66;89.32;101078.84;4997850;28;96845;-34
2021/12/03 05:03:15;;;;;;;1.42;1.13;;;;;;;2.66;89.08;101076.16;4995725;28;101708;-34
2021/12/03 05:05:55;;;;;;;2.88;1.33;;;;;;;2.71;89.35;101079.59;4996041;28;100882;-35
2021/12/03 05:08:22;;;;;;;6.03;1.15;;;;;;;2.69;89.61;101070.72;4996884;28;96757;-34
2021/12/03 05:10:48;;;;;;;0.77;0.60;;;;;;;2.67;88.67;101065.44;4996378;28;96891;-34
2021/12/03 05:13:18;;;;;;;1.35;1.02;;;;;;;2.73;89.04;101081.31;4997541;28;97960;-34
2021/12/03 05:15:44;;;;;;;3.13;1.67;;;;;;;2.62;88.77;101061.09;4995914;28;100733;-35
2021/12/03 05:18:12;;;;;;;2.08;1.45;;;;;;;2.72;89.01;101076.88;4996437;28;96592;-34
2021/12/03 05:20:37;;;;;;;2.17;0.80;;;;;;;2.68;89.05;101069.84;4996696;28;96955;-34
2021/12/03 05:23:03;;;;;;;0.60;0.60;;;;;;;2.71;89.32;101066.22;4997528;28;97832;-35
2021/12/03 05:25:30;;;;;;;1.85;0.98;;;;;;;2.70;89.52;101067.16;4995702;28;101352;-35
2021/12/03 05:27:56;;;;;;;1.95;1.17;;;;;;;2.75;89.00;101068.78;4996947;28;96642;-35
2021/12/03 05:30:21;;;;;;;1.23;0.93;;;;;;;2.68;89.30;101060.94;4996205;28;96819;-35
2021/12/03 05:32:46;;;;;;;4.03;1.35;;;;;;;2.71;89.23;101064.41;4997201;28;97726;-34
2021/12/03 05:35:12;;;;;;;1.30;1.20;;;;;;;2.72;89.10;101076.88;4997307;28;97746;-34
2021/12/03 05:37:37;;;;;;;1.83;0.98;;;;;;;2.69;89.28;101057.34;4997619;28;96827;-34
2021/12/03 05:40:05;;;;;;;4.72;1.77;;;;;;;2.69;89.11;101065.38;4997256;28;96773;-34
2021/12/03 05:42:31;;;;;;;4.90;0.85;;;;;;;2.69;89.14;101060.03;4995653;28;102267;-35
2021/12/03 05:44:58;;;;;;;3.00;1.45;;;;;;;2.72;88.75;101062.66;4997265;28;99649;-34
2021/12/03 05:47:23;;;;;;;1.27;1.08;;;;;;;2.76;89.07;101062.53;4997093;28;96718;-35
2021/12/03 05:49:49;;;;;;;0.93;0.57;;;;;;;2.75;89.54;101062.56;4996977;28;96801;-35
2021/12/03 05:52:14;;;;;;;0.90;0.73;;;;;;;2.76;89.09;101064.28;4996495;28;97464;-34
2021/12/03 05:54:39;;;;;;;1.85;0.75;;;;;;;2.74;88.97;101048.31;4996480;28;97826;-35
2021/12/03 05:57:05;;;;;;;0.60;0.50;;;;;;;2.73;89.29;101035.84;4997271;28;96506;-35
2021/12/03 05:59:30;;;;;;;8.45;1.02;;;;;;;2.73;88.98;101035.84;4997200;28;96814;-35
2021/12/03 06:01:56;;;;;;;2.60;1.17;;;;;;;2.76;88.72;101048.25;4996318;28;97913;-35
2021/12/03 06:04:22;;;;;;;7.75;2.00;;;;;;;2.72;89.04;101034.09;4997093;28;96606;-35
2021/12/03 06:06:47;;;;;;;2.60;1.63;;;;;;;2.76;88.79;101045.56;4996132;28;111817;-35
2021/12/03 06:09:13;;;;;;;1.95;0.95;;;;;;;2.80;89.06;101052.59;4996327;28;114768;-34
2021/12/03 06:11:38;;;;;;;2.17;1.52;;;;;;;2.83;89.30;101065.91;4996124;28;113764;-34
2021/12/03 06:14:04;;;;;;;2.83;1.80;;;;;;;2.75;89.05;101044.69;4996583;28;97832;-34
2021/12/03 06:16:29;;;;;;;1.45;1.13;;;;;;;2.86;88.92;101070.28;4996552;28;96554;-35
2021/12/03 06:18:57;;;;;;;3.72;1.42;;;;;;;2.86;88.63;101068.50;4996843;28;96853;-35
2021/12/03 06:21:22;;;;;;;4.00;1.17;;;;;;;2.82;88.46;101066.81;4994518;28;123373;-34
2021/12/03 06:23:48;;;;;;;17.48;2.60;;;;;;;2.83;88.38;101057.00;4996181;28;97836;-35
2021/12/03 06:26:13;;;;;;;6.10;1.98;;;;;;;2.88;88.44;101072.00;4996023;28;96548;-35
2021/12/03 06:28:39;;;;;;;0.73;0.73;;;;;;;2.82;88.96;101066.81;4997049;28;96726;-35
2021/12/03 06:31:06;;;;;;;2.10;1.10;;;;;;;2.86;88.39;101072.97;4994855;28;100947;-34
2021/12/03 06:33:32;;;;;;;7.63;0.95;;;;;;;2.83;88.42;101060.53;4995096;28;101207;-34
2021/12/03 06:35:57;;;;;;;1.50;1.40;;;;;;;2.81;88.50;101049.00;4995007;28;96673;-35
2021/12/03 06:38:24;;;;;;;4.90;2.08;;;;;;;2.77;88.05;101060.72;4993766;28;116878;-34
2021/12/03 06:40:51;;;;;;;1.83;1.45;;;;;;;2.78;87.97;101061.59;4994198;28;100690;-35
2021/12/03 06:43:17;;;;;;;1.77;1.35;;;;;;;2.72;87.94;101055.50;4994638;28;100992;-35
2021/12/03 06:45:43;;;;;;;7.07;1.83;;;;;;;2.77;87.41;101066.06;4995012;28;96729;-35
2021/12/03 06:48:09;;;;;;;0.73;0.65;;;;;;;2.69;87.47;101049.31;4994949;28;96795;-35
2021/12/03 06:50:35;;;;;;;2.22;1.15;;;;;;;2.71;87.58;101055.53;4996210;28;97369;-35
2021/12/03 06:53:06;;;;;;;2.55;1.63;;;;;;;2.67;87.11;101051.16;4995881;28;97887;-35
2021/12/03 06:55:46;;;;;;;4.13;1.73;;;;;;;2.62;86.85;101035.25;4996256;28;96534;-35
2021/12/03 06:58:13;;;;;;;2.75;1.52;;;;;;;2.57;86.25;101029.13;4996578;28;96518;-34
2021/12/03 07:00:39;;;;;;;6.57;1.63;;;;;;;2.61;86.25;101020.13;4994181;28;100906;-34
2021/12/03 07:03:05;;;;;;;0.40;0.40;;;;;;;2.60;86.15;101013.03;4995351;28;97877;-35
2021/12/03 07:05:30;;;;;;;0.98;0.75;;;;;;;2.58;86.25;101024.69;4995397;28;96638;-35
2021/12/03 07:07:56;;;;;;;7.68;1.02;;;;;;;2.55;86.23;101031.84;4995320;28;111599;-35
2021/12/03 07:10:21;;;;;;;3.95;1.98;;;;;;;2.58;85.99;101038.06;4995660;28;97838;-35
2021/12/03 07:12:48;;;;;;;2.03;1.25;;;;;;;2.58;86.06;101046.06;4995666;28;97755;-35
2021/12/03 07:15:14;;;;;;;3.45;0.75;;;;;;;2.55;85.77;101042.56;4995923;28;96612;-35
2021/12/03 07:17:40;;;;;;;1.42;0.52;;;;;;;2.55;85.53;101047.00;4994529;28;96810;-34
2021/12/03 07:20:07;;;;;;;5.78;3.00;;;;;;;2.51;85.80;101040.88;4995462;28;98032;-35
2021/12/03 07:22:33;;;;;;;5.63;1.30;;;;;;;2.47;85.88;101038.31;4994428;28;102387;-35
2021/12/03 07:24:58;;;;;;;2.28;1.33;;;;;;;2.53;85.71;101043.50;4994406;28;97010;-35
2021/12/03 07:27:25;;;;;;;7.97;1.85;;;;;;;2.48;85.65;101048.97;4995395;28;96829;-35
2021/12/03 07:29:50;;;;;;;7.68;1.45;;;;;;;2.41;85.14;101030.44;4994808;28;99529;-35
2021/12/03 07:32:18;;;;;;;3.85;0.85;;;;;;;2.45;84.62;101032.13;4994185;28;97468;-34
2021/12/03 07:34:44;;;;;;;3.08;1.55;;;;;;;2.37;85.38;101010.94;4994184;28;96708;-35
2021/12/03 07:37:09;;;;;;;6.47;3.00;;;;;;;2.44;85.56;101028.56;4995737;28;96793;-35
2021/12/03 07:39:35;;;;;;;1.95;1.70;;;;;;;2.40;85.33;101007.31;4995339;28;98416;-35
2021/12/03 07:42:00;;;;;;;2.38;1.70;;;;;;;2.45;85.60;101019.63;4994321;28;127022;-34
2021/12/03 07:44:26;;;;;;;4.78;1.73;;;;;;;2.45;85.39;101019.63;4995496;28;96597;-34
2021/12/03 07:46:51;;;;;;;1.65;1.38;;;;;;;2.46;85.53;101026.75;4995321;28;101623;-34
2021/12/03 07:49:16;;;;;;;1.75;1.50;;;;;;;2.35;85.63;101007.41;4994061;28;124511;-34
2021/12/03 07:51:42;;;;;;;0.80;0.70;;;;;;;2.39;84.91;101014.44;4995036;28;99211;-35
2021/12/03 07:54:07;;;;;;;3.55;1.90;;;;;;;2.46;85.39;101010.69;4994718;28;96896;-35
2021/12/03 07:56:32;;;;;;;1.77;1.23;;;;;;;2.39;85.08;100997.53;4995392;28;96919;-34
2021/12/03 07:58:58;;;;;;;1.15;1.02;;;;;;;2.46;85.40;101016.03;4994375;28;110493;-34
2021/12/03 08:01:24;;;;;;;1.73;1.33;;;;;;;2.46;84.96;101012.50;4994388;28;97835;-34
2021/12/03 08:03:49;;;;;;;4.50;0.95;;;;;;;2.45;85.23;101006.25;4993560;28;97458;-35
2021/12/03 08:06:15;;;;;;;1.85;1.50;;;;;;;2.43;85.18;101000.09;4995042;28;96797;-35
2021/12/03 08:08:41;;;;;;;15.00;1.58;;;;;;;2.44;85.18;101001.84;4994803;28;97891;-35
2021/12/03 08:11:07;;;;;;;9.63;2.47;;;;;;;2.48;85.16;101007.97;4995168;28;98269;-34
2021/12/03 08:13:33;;;;;;;5.72;1.02;;;;;;;2.54;84.97;101014.03;4993346;28;96661;-34
2021/12/03 08:15:59;;;;;;;3.72;2.60;;;;;;;2.48;84.89;100989.25;4994195;28;96793;-34
2021/12/03 08:18:25;;;;;;;5.80;1.95;;;;;;;2.54;84.98;101002.47;4993892;28;97979;-35
2021/12/03 08:20:52;;;;;;;4.55;1.48;;;;;;;2.57;85.15;100990.81;4994690;28;97917;-34
2021/12/03 08:23:18;;;;;;;3.88;2.22;;;;;;;2.58;84.85;100989.91;4993531;28;96713;-34
2021/12/03 08:25:43;;;;;;;3.08;1.65;;;;;;;2.52;85.16;100981.13;4993577;28;96794;-35
2021/12/03 08:28:09;;;;;;;0.90;0.65;;;;;;;2.58;85.10;100988.13;4994014;28;101526;-35
2021/12/03 08:30:35;;;;;;;12.98;2.47;;;;;;;2.58;85.16;100982.78;4994606;28;97863;-34
2021/12/03 08:33:01;;;;;;;8.52;2.78;;;;;;;2.53;84.93;100972.19;4993154;28;96511;-34
2021/12/03 08:35:26;;;;;;;5.75;1.63;;;;;;;2.53;84.67;100963.31;4995013;28;96789;-35
2021/12/03 08:37:52;;;;;;;1.08;0.90;;;;;;;2.60;84.75;100966.66;4994451;28;98008;-34
2021/12/03 08:40:19;;;;;;;2.15;1.20;;;;;;;2.62;85.38;100968.41;4994466;28;97895;-35
2021/12/03 08:42:45;;;;;;;4.47;0.90;;;;;;;2.59;84.98;100959.56;4992754;28;96561;-35
2021/12/03 08:45:12;;;;;;;0.73;0.68;;;;;;;2.70;85.27;100963.72;4994594;28;96675;-35
2021/12/03 08:47:39;;;;;;;3.15;1.40;;;;;;;2.64;85.21;100952.31;4992614;28;99985;-35
2021/12/03 08:50:10;;;;;;;0.90;0.88;;;;;;;2.74;84.94;100961.81;4994105;28;98862;-35
2021/12/03 08:55:40;;;;;;;3.90;0.75;;;;;;;2.88;84.88;100964.13;5011850;28;96723;-34
2021/12/03 08:58:07;;;;;;;1.42;0.77;;;;;;;2.87;84.06;100957.03;4994976;28;101106;-35
2021/12/03 09:00:33;;;;;;;3.53;0.98;;;;;;;2.89;84.41;100964.09;5002855;28;99694;-34
2021/12/03 09:02:59;;;;;;;2.33;0.70;;;;;;;2.86;84.42;100949.91;4993307;28;96599;-35
2021/12/03 09:05:31;;;;;;;3.30;0.60;;;;;;;2.87;84.01;100935.63;4992981;28;96737;-35
2021/12/03 09:07:57;;;;;;;0.90;0.52;;;;;;;2.91;84.33;100943.53;4992283;28;100814;-35
2021/12/03 09:10:24;;;;;;;1.05;0.70;;;;;;;2.94;84.61;100940.75;4992413;28;101161;-35
2021/12/03 09:12:49;;;;;;;0.65;0.55;;;;;;;2.97;83.45;100934.44;4992892;28;96589;-35
2021/12/03 09:15:18;;;;;;;4.05;0.90;;;;;;;3.01;83.51;100943.25;4992858;28;96834;-35
2021/12/03 09:18:04;;;;;;;6.57;1.73;;;;;;;2.97;83.42;100932.63;4993872;28;97912;-34
2021/12/03 09:23:01;;;;;;;1.02;0.55;;;;;;;3.02;83.93;100926.28;4993910;28;97371;-35
2021/12/03 09:25:38;;;;;;;7.10;1.55;;;;;;;3.02;83.65;100923.59;4993654;28;96800;-35
2021/12/03 09:28:07;;;;;;;1.27;0.65;;;;;;;3.02;83.67;100924.47;4997064;28;97871;-35
2021/12/03 09:30:39;;;;;;;1.40;1.13;;;;;;;3.01;83.22;100922.72;4997114;28;97915;-35
2021/12/03 09:33:07;;;;;;;4.93;0.98;;;;;;;2.96;83.19;100911.28;4997196;28;96503;-34
2021/12/03 09:35:36;;;;;;;3.63;1.02;;;;;;;2.94;83.13;100913.13;4997156;28;96847;-35
2021/12/03 09:38:01;;;;;;;1.27;1.05;;;;;;;2.99;84.03;100905.84;4995733;28;100766;-35
2021/12/03 09:40:30;;;;;;;3.95;1.70;;;;;;;2.96;83.56;100911.28;4997046;28;97909;-35
2021/12/03 09:42:56;;;;;;;6.75;1.50;;;;;;;2.94;83.96;100903.28;4997442;28;96470;-35
2021/12/03 09:45:21;;;;;;;0.75;0.32;;;;;;;2.94;83.99;100905.97;4997468;28;96498;-35
2021/12/03 09:47:48;;;;;;;6.75;1.13;;;;;;;2.98;84.08;100904.97;4994596;28;123450;-35
2021/12/03 09:50:14;;;;;;;4.57;1.48;;;;;;;2.93;84.23;100889.97;4995899;28;99614;-35
2021/12/03 09:55:12;;;;;;;13.25;1.33;;;;;;;2.89;84.57;100874.94;4997088;28;96740;-35
2021/12/03 09:58:22;;;;;;;4.32;1.70;;;;;;;2.98;84.70;100891.59;4994965;28;101436;-35
2021/12/03 10:00:39;;;;;;;3.80;1.30;;;;;;;2.93;85.42;100888.19;4996673;28;97220;-34
2021/12/03 10:33:00;;;;;;;10.03;1.37;;;;;;;3.17;85.93;100816.97;4994825;28;97776;-35
2021/12/03 10:40:51;;;;;;;6.65;0.77;;;;;;;3.19;85.34;100798.19;4993832;28;97261;-35
2021/12/03 11:02:32;;;;;;;1.55;0.95;;;;;;;3.47;84.43;100791.94;4995231;28;98035;-35
2021/12/03 11:27:31;;;;;;;5.20;1.80;;;;;;;3.61;83.56;100746.81;4995097;28;97327;-35
2021/12/03 11:38:41;;;;;;;4.35;2.30;;;;;;;3.58;84.00;100713.00;4995980;28;97015;-35
2021/12/03 11:52:24;;;;;;;9.05;2.13;;;;;;;3.59;84.11;100690.63;4995471;28;96456;-35
2021/12/03 11:55:43;;;;;;;9.93;2.63;;;;;;;3.65;84.07;100686.88;4994650;28;98845;-35
2021/12/03 11:58:16;;;;;;;2.30;1.15;;;;;;;3.63;83.29;100666.44;4994490;28;98741;-35
2021/12/03 12:03:57;;;;;;;8.10;1.75;;;;;;;3.72;83.68;100658.94;4994269;28;96601;-35
2021/12/03 12:10:28;;;;;;;3.30;0.75;;;;;;;3.74;82.43;100656.19;4992999;28;97631;-35
2021/12/03 13:20:29;;;;;;;0.80;0.52;;;;;;;3.61;87.34;100570.06;4997608;28;96614;-35
2021/12/03 13:26:29;;;;;;;1.08;0.95;;;;;;;3.55;87.10;100554.22;4975346;28;96914;-35
2021/12/03 13:29:34;;;;;;;2.30;0.90;;;;;;;3.57;87.49;100557.72;4999449;28;97402;-35
2021/12/03 13:40:46;;;;;;;1.60;0.90;;;;;;;3.57;88.23;100557.72;5002601;28;97186;-35
2021/12/03 13:56:54;;;;;;;3.95;1.70;;;;;;;3.49;87.88;100539.28;4997755;28;96756;-35
2021/12/03 14:05:04;;;;;;;3.22;1.27;;;;;;;3.57;88.40;100544.34;4996681;28;97341;-35
2021/12/03 14:37:17;;;;;;;1.88;1.17;;;;;;;3.55;89.60;100527.44;4995231;28;97495;-35
2021/12/03 14:45:16;;;;;;;3.42;1.17;;;;;;;3.63;90.55;100535.22;4994855;28;98170;-35
2021/12/03 14:48:08;;;;;;;1.80;1.25;;;;;;;3.65;89.96;100527.97;4996268;28;97921;-35
2021/12/03 14:53:37;;;;;;;3.95;1.90;;;;;;;3.63;90.54;100513.78;4996836;28;96520;-35
2021/12/03 14:56:10;;;;;;;7.28;3.08;;;;;;;3.61;89.85;100522.72;4995833;28;99474;-35
2021/12/03 15:03:53;;;;;;;3.35;2.35;;;;;;;3.59;90.64;100513.00;4995988;28;96806;-34
2021/12/03 15:06:37;;;;;;;2.42;1.73;;;;;;;3.63;90.66;100509.28;4994434;28;100892;-35
2021/12/03 15:09:29;;;;;;;2.70;1.58;;;;;;;3.63;91.03;100501.25;4994197;28;100817;-34
2021/12/03 15:12:18;;;;;;;4.57;2.22;;;;;;;3.63;90.73;100497.72;4995923;28;96959;-35
2021/12/03 15:22:49;;;;;;;4.97;2.65;;;;;;;3.60;90.78;100509.44;4995837;28;96468;-34
2021/12/03 15:27:58;;;;;;;1.48;1.20;;;;;;;3.59;91.22;100505.84;4994512;28;98144;-35
2021/12/03 15:33:05;;;;;;;4.20;0.95;;;;;;;3.62;90.85;100510.22;4995782;28;96603;-35
2021/12/03 15:57:03;;;;;;;3.08;2.05;;;;;;;3.70;91.22;100467.94;4992976;28;96490;-34
2021/12/03 16:05:11;;;;;;;4.07;2.67;;;;;;;3.76;91.14;100475.72;4995494;28;96621;-35
2021/12/03 16:15:32;;;;;;;4.30;2.03;;;;;;;3.78;91.04;100447.06;4994909;28;96484;-34
2021/12/03 16:53:20;;;;;;;4.13;3.33;;;;;;;3.92;90.81;100445.66;4994222;28;97091;-35
2021/12/03 16:55:55;;;;;;;3.00;2.40;;;;;;;3.89;90.86;100433.25;4994123;28;99397;-35
2021/12/03 16:58:21;;;;;;;3.22;2.45;;;;;;;3.89;90.40;100432.41;4994387;28;96614;-34
2021/12/03 17:00:53;;;;;;;4.03;2.90;;;;;;;3.89;90.94;100414.50;4993452;28;112371;-34
2021/12/03 17:03:26;;;;;;;5.35;3.95;;;;;;;3.90;90.36;100404.66;4993829;28;99139;-35
2021/12/03 17:09:10;;;;;;;3.50;2.70;;;;;;;3.90;91.17;100393.94;4994582;28;96617;-34
2021/12/03 17:11:47;;;;;;;1.17;0.80;;;;;;;3.94;90.62;100398.25;4994128;28;96833;-35
2021/12/03 17:49:15;;;;;;;2.67;2.43;;;;;;;4.04;90.60;100367.44;4996598;28;97771;-35